createdAt,value
2018-12-07T00:00:58.431Z,11.90
2018-12-07T00:03:32.817Z,11.90
2018-12-07T00:06:07.385Z,11.80
2018-12-07T00:08:41.908Z,11.80
2018-12-07T00:11:16.350Z,11.80
2018-12-07T00:13:50.833Z,11.90
2018-12-07T00:16:25.120Z,11.90
2018-12-07T00:18:59.388Z,11.90
2018-12-07T00:21:34.117Z,11.90
2018-12-07T00:24:08.819Z,11.90
2018-12-07T00:26:43.422Z,11.90
2018-12-07T00:29:18.253Z,11.90
2018-12-07T00:31:52.933Z,11.90
2018-12-07T00:34:27.177Z,11.90
2018-12-07T00:37:01.359Z,11.80
2018-12-07T00:39:35.585Z,11.80
2018-12-07T00:42:10.426Z,11.90
2018-12-07T00:44:44.709Z,11.90
2018-12-07T00:47:19.077Z,11.90
2018-12-07T00:49:53.301Z,11.90
2018-12-07T00:52:27.782Z,11.90
2018-12-07T00:55:02.262Z,11.90
2018-12-07T00:57:36.444Z,11.80
2018-12-07T01:00:11.549Z,11.70
2018-12-07T01:02:46.056Z,11.70
2018-12-07T01:05:20.533Z,11.70
2018-12-07T01:07:55.734Z,11.70
2018-12-07T01:10:29.949Z,11.80
2018-12-07T01:13:04.245Z,11.70
2018-12-07T01:15:38.502Z,11.70
2018-12-07T01:18:13.421Z,11.70
2018-12-07T01:20:47.813Z,11.70
2018-12-07T01:23:22.245Z,11.60
2018-12-07T01:25:56.643Z,11.60
2018-12-07T01:28:31.705Z,11.50
2018-12-07T01:31:05.989Z,11.50
2018-12-07T01:33:40.164Z,11.50
2018-12-07T01:36:15.726Z,11.50
2018-12-07T01:38:50.004Z,11.40
2018-12-07T01:41:24.209Z,11.40
2018-12-07T01:43:58.477Z,11.40
2018-12-07T01:46:32.686Z,11.40
2018-12-07T01:49:07.094Z,11.40
2018-12-07T01:51:41.298Z,11.40
2018-12-07T01:54:15.573Z,11.30
2018-12-07T01:56:49.942Z,11.30
2018-12-07T01:59:24.470Z,11.30
2018-12-07T02:01:58.766Z,11.30
2018-12-07T02:04:33.083Z,11.30
2018-12-07T02:07:17.740Z,11.30
2018-12-07T02:09:51.929Z,11.30
2018-12-07T02:12:26.265Z,11.30
2018-12-07T02:15:00.780Z,11.30
2018-12-07T02:17:35.143Z,11.30
2018-12-07T02:20:10.017Z,11.30
2018-12-07T02:22:44.400Z,11.30
2018-12-07T02:25:18.678Z,11.30
2018-12-07T02:27:59.197Z,11.30
2018-12-07T02:30:33.798Z,11.30
2018-12-07T02:33:08.134Z,11.40
2018-12-07T02:35:42.311Z,11.40
2018-12-07T02:38:16.664Z,11.40
2018-12-07T02:40:50.884Z,11.40
2018-12-07T02:43:26.279Z,11.40
2018-12-07T02:46:00.637Z,11.50
2018-12-07T02:48:35.030Z,11.50
2018-12-07T02:51:09.434Z,11.50
2018-12-07T02:53:43.649Z,11.50
2018-12-07T02:56:17.954Z,11.50
2018-12-07T02:58:52.385Z,11.50
2018-12-07T03:01:26.949Z,11.50
2018-12-07T03:04:01.346Z,11.50
2018-12-07T03:06:36.279Z,11.50
2018-12-07T03:09:10.693Z,11.50
2018-12-07T03:11:45.253Z,11.50
2018-12-07T03:14:19.436Z,11.50
2018-12-07T03:16:53.701Z,11.50
2018-12-07T03:19:28.141Z,11.50
2018-12-07T03:22:02.677Z,11.50
2018-12-07T03:24:36.961Z,11.50
2018-12-07T03:27:11.213Z,11.40
2018-12-07T03:29:45.381Z,11.40
2018-12-07T03:32:19.818Z,11.40
2018-12-07T03:34:54.314Z,11.40
2018-12-07T03:37:28.693Z,11.40
2018-12-07T03:40:03.278Z,11.40
2018-12-07T03:42:37.443Z,11.40
2018-12-07T03:45:11.921Z,11.40
2018-12-07T03:47:46.197Z,11.40
2018-12-07T03:50:20.567Z,11.40
2018-12-07T03:52:55.095Z,11.40
2018-12-07T03:55:29.500Z,11.50
2018-12-07T03:58:03.897Z,11.50
2018-12-07T04:00:38.222Z,11.50
2018-12-07T04:03:12.591Z,11.50
2018-12-07T04:05:47.122Z,11.50
2018-12-07T04:08:21.494Z,11.50
2018-12-07T04:10:55.681Z,11.40
2018-12-07T04:13:29.989Z,11.50
2018-12-07T04:16:04.575Z,11.50
2018-12-07T04:18:38.985Z,11.50
2018-12-07T04:21:14.214Z,11.50
2018-12-07T04:23:48.441Z,11.50
2018-12-07T04:26:25.626Z,11.50
2018-12-07T04:29:00.001Z,11.50
2018-12-07T04:31:34.190Z,11.50
2018-12-07T04:34:08.823Z,11.50
2018-12-07T04:36:43.013Z,11.50
2018-12-07T04:39:17.299Z,11.50
2018-12-07T04:41:51.686Z,11.50
2018-12-07T04:44:26.077Z,11.50
2018-12-07T04:47:00.321Z,11.50
2018-12-07T04:49:34.735Z,11.50
2018-12-07T04:52:09.182Z,11.50
2018-12-07T04:54:45.254Z,11.50
2018-12-07T04:57:19.606Z,11.50
2018-12-07T04:59:54.177Z,11.50
2018-12-07T05:02:28.582Z,11.50
2018-12-07T05:05:03.219Z,11.40
2018-12-07T05:07:37.838Z,11.50
2018-12-07T05:10:13.280Z,11.50
2018-12-07T05:12:47.777Z,11.50
2018-12-07T05:15:22.416Z,11.50
2018-12-07T05:17:56.970Z,11.50
2018-12-07T05:20:31.427Z,11.50
2018-12-07T05:23:06.613Z,11.50
2018-12-07T05:25:40.939Z,11.50
2018-12-07T05:28:15.149Z,11.50
2018-12-07T05:30:49.545Z,11.50
2018-12-07T05:33:25.867Z,11.50
2018-12-07T05:36:00.155Z,11.50
2018-12-07T05:38:34.337Z,11.50
2018-12-07T05:41:08.725Z,11.60
2018-12-07T05:43:55.046Z,11.60
2018-12-07T05:46:29.210Z,11.60
2018-12-07T05:49:03.530Z,11.60
2018-12-07T05:51:38.062Z,11.60
2018-12-07T05:54:12.305Z,11.50
2018-12-07T05:56:46.605Z,11.50
2018-12-07T05:59:23.808Z,11.50
2018-12-07T06:01:58.326Z,11.60
2018-12-07T06:04:32.633Z,11.60
2018-12-07T06:07:08.143Z,11.60
2018-12-07T06:09:42.621Z,11.60
2018-12-07T06:12:17.048Z,11.50
2018-12-07T06:14:52.153Z,11.50
2018-12-07T06:17:26.472Z,11.50
2018-12-07T06:20:00.789Z,11.50
2018-12-07T06:22:34.965Z,11.50
2018-12-07T06:25:09.573Z,11.50
2018-12-07T06:27:44.165Z,11.50
2018-12-07T06:30:18.730Z,11.50
2018-12-07T06:32:52.990Z,11.50
2018-12-07T06:35:27.365Z,11.50
2018-12-07T06:38:01.821Z,11.50
2018-12-07T06:40:35.987Z,11.50
2018-12-07T06:43:10.451Z,11.60
2018-12-07T06:45:44.853Z,11.50
2018-12-07T06:48:19.345Z,11.60
2018-12-07T06:50:53.589Z,11.50
2018-12-07T06:53:29.461Z,11.50
2018-12-07T06:56:03.876Z,11.50
2018-12-07T06:58:38.057Z,11.50
2018-12-07T07:01:12.509Z,11.50
2018-12-07T07:03:46.725Z,11.50
2018-12-07T07:06:21.503Z,11.50
2018-12-07T07:08:55.847Z,11.50
2018-12-07T07:11:30.281Z,11.50
2018-12-07T07:14:05.189Z,11.50
2018-12-07T07:16:39.653Z,11.50
2018-12-07T07:19:13.807Z,11.50
2018-12-07T07:21:48.794Z,11.50
2018-12-07T07:24:22.987Z,11.50
2018-12-07T07:26:57.513Z,11.50
2018-12-07T07:29:31.770Z,11.50
2018-12-07T07:32:05.937Z,11.50
2018-12-07T07:34:40.438Z,11.40
2018-12-07T07:37:14.884Z,11.40
2018-12-07T07:39:56.035Z,11.40
2018-12-07T07:42:30.485Z,11.40
2018-12-07T07:45:06.013Z,11.40
2018-12-07T07:47:41.753Z,11.40
2018-12-07T07:50:16.110Z,11.40
2018-12-07T07:52:50.474Z,11.40
2018-12-07T07:55:24.869Z,11.40
2018-12-07T07:57:59.229Z,11.40
2018-12-07T08:00:35.176Z,11.40
2018-12-07T08:03:09.560Z,11.40
2018-12-07T08:05:43.881Z,11.50
2018-12-07T08:08:18.939Z,11.60
2018-12-07T08:10:53.286Z,11.60
2018-12-07T08:13:27.658Z,11.60
2018-12-07T08:16:01.997Z,11.70
2018-12-07T08:18:36.425Z,11.70
2018-12-07T08:21:10.623Z,11.80
2018-12-07T08:23:45.663Z,11.80
2018-12-07T08:26:20.038Z,11.80
2018-12-07T08:28:54.602Z,11.70
2018-12-07T08:31:30.592Z,11.60
2018-12-07T08:34:05.189Z,11.50
2018-12-07T08:36:39.473Z,11.50
2018-12-07T08:39:13.805Z,11.50
2018-12-07T08:41:48.945Z,11.50
2018-12-07T08:44:23.337Z,11.40
2018-12-07T08:46:57.628Z,11.40
2018-12-07T08:49:37.537Z,11.50
2018-12-07T08:52:12.138Z,11.50
2018-12-07T08:54:46.645Z,11.50
2018-12-07T08:57:21.025Z,11.50
2018-12-07T08:59:55.209Z,11.50
2018-12-07T09:02:29.603Z,11.50
2018-12-07T09:05:04.490Z,11.50
2018-12-07T09:07:38.703Z,11.50
2018-12-07T09:10:13.204Z,11.50
2018-12-07T09:12:48.717Z,11.50
2018-12-07T09:15:23.099Z,11.50
2018-12-07T09:17:57.374Z,11.50
2018-12-07T09:20:31.642Z,11.50
2018-12-07T09:23:06.089Z,11.60
2018-12-07T09:25:42.042Z,11.60
2018-12-07T09:28:16.714Z,11.60
2018-12-07T09:30:51.097Z,11.60
2018-12-07T09:33:25.378Z,11.50
2018-12-07T09:35:59.906Z,11.60
2018-12-07T09:38:34.209Z,11.60
2018-12-07T09:41:08.597Z,11.60
2018-12-07T09:43:42.939Z,11.60
2018-12-07T09:46:17.240Z,11.60
2018-12-07T09:48:51.573Z,11.70
2018-12-07T09:51:26.153Z,11.70
2018-12-07T09:54:00.534Z,11.70
2018-12-07T09:56:34.806Z,11.70
2018-12-07T09:59:09.174Z,11.70
2018-12-07T10:01:45.269Z,11.70
2018-12-07T10:04:19.510Z,11.70
2018-12-07T10:06:53.837Z,11.70
2018-12-07T10:09:30.000Z,11.70
2018-12-07T10:12:04.383Z,11.70
2018-12-07T10:14:39.055Z,11.70
2018-12-07T10:17:13.252Z,11.70
2018-12-07T10:19:48.734Z,11.80
2018-12-07T10:22:22.958Z,11.80
2018-12-07T10:24:57.205Z,11.80
2018-12-07T10:27:33.069Z,11.80
2018-12-07T10:30:07.518Z,11.80
2018-12-07T10:32:41.726Z,11.80
2018-12-07T10:35:16.681Z,11.80
2018-12-07T10:37:50.938Z,11.80
2018-12-07T10:40:25.514Z,11.90
2018-12-07T10:43:00.034Z,11.90
2018-12-07T10:45:34.348Z,11.90
2018-12-07T10:48:08.561Z,11.90
2018-12-07T10:50:43.168Z,11.90
2018-12-07T10:53:17.496Z,12.00
2018-12-07T10:55:51.757Z,12.00
2018-12-07T10:58:26.006Z,12.00
2018-12-07T11:01:05.824Z,12.00
2018-12-07T11:03:45.314Z,12.00
2018-12-07T11:06:25.341Z,12.00
2018-12-07T11:13:34.207Z,12.00
2018-12-07T11:16:14.156Z,11.90
2018-12-07T11:18:55.485Z,11.90
2018-12-07T11:21:35.225Z,11.90
2018-12-07T11:24:16.952Z,11.90
2018-12-07T11:26:57.518Z,11.90
2018-12-07T11:31:45.161Z,12.00
2018-12-07T11:34:23.201Z,12.00
2018-12-07T11:36:57.497Z,12.00
2018-12-07T11:39:31.946Z,11.90
2018-12-07T11:42:06.345Z,11.90
2018-12-07T11:44:41.849Z,12.00
2018-12-07T11:47:16.203Z,12.00
2018-12-07T11:49:50.383Z,12.00
2018-12-07T11:52:24.907Z,12.00
2018-12-07T11:55:01.109Z,12.00
2018-12-07T11:57:35.429Z,12.10
2018-12-07T12:00:10.153Z,12.10
2018-12-07T12:02:44.538Z,12.20
2018-12-07T12:05:18.781Z,12.20
2018-12-07T12:07:54.562Z,12.20
2018-12-07T12:10:28.829Z,12.30
2018-12-07T12:13:04.139Z,12.30
2018-12-07T12:15:38.340Z,12.30
2018-12-07T12:18:14.427Z,12.30
2018-12-07T12:20:48.837Z,12.30
2018-12-07T12:23:23.245Z,12.40
2018-12-07T12:25:57.805Z,12.40
2018-12-07T12:28:32.168Z,12.50
2018-12-07T12:31:06.569Z,12.60
2018-12-07T12:33:41.330Z,12.60
2018-12-07T12:36:17.267Z,12.60
2018-12-07T12:38:53.275Z,12.80
2018-12-07T12:41:27.501Z,12.90
2018-12-07T12:44:01.939Z,12.80
2018-12-07T12:46:36.525Z,12.70
2018-12-07T12:49:10.741Z,12.70
2018-12-07T12:51:44.957Z,12.70
2018-12-07T12:54:20.862Z,12.70
2018-12-07T12:56:55.296Z,12.70
2018-12-07T12:59:29.621Z,12.80
2018-12-07T13:02:04.161Z,12.80
2018-12-07T13:04:38.341Z,12.90
2018-12-07T13:07:14.515Z,12.80
2018-12-07T13:09:48.872Z,12.80
2018-12-07T13:12:23.230Z,12.80
2018-12-07T13:14:57.621Z,12.80
2018-12-07T13:17:33.838Z,12.70
2018-12-07T13:20:08.845Z,12.70
2018-12-07T13:22:43.098Z,12.80
2018-12-07T13:25:18.653Z,12.70
2018-12-07T13:27:52.995Z,12.70
2018-12-07T13:30:27.381Z,12.70
2018-12-07T13:33:01.990Z,12.70
2018-12-07T13:36:39.389Z,12.80
2018-12-07T13:39:13.728Z,12.70
2018-12-07T13:41:50.597Z,12.70
2018-12-07T13:44:25.264Z,12.70
2018-12-07T13:46:59.871Z,12.70
2018-12-07T13:49:35.191Z,12.70
2018-12-07T13:52:09.885Z,12.70
2018-12-07T13:54:44.544Z,12.70
2018-12-07T13:57:19.306Z,12.60
2018-12-07T13:59:53.844Z,12.60
2018-12-07T14:05:18.142Z,12.60
2018-12-07T14:07:52.723Z,12.60
2018-12-07T14:10:27.276Z,12.60
2018-12-07T14:13:01.943Z,12.60
2018-12-07T14:15:36.498Z,12.70
2018-12-07T14:18:12.850Z,12.70
2018-12-07T14:20:47.374Z,12.70
2018-12-07T14:23:21.995Z,12.70
2018-12-07T14:25:56.698Z,12.70
2018-12-07T14:28:31.026Z,12.70
2018-12-07T14:31:05.601Z,12.70
2018-12-07T14:33:40.486Z,12.70
2018-12-07T14:36:15.123Z,12.70
2018-12-07T14:38:50.500Z,12.70
2018-12-07T14:41:25.012Z,12.60
2018-12-07T14:43:59.655Z,12.60
2018-12-07T14:46:34.560Z,12.50
2018-12-07T14:49:09.064Z,12.50
2018-12-07T14:51:43.757Z,12.40
2018-12-07T14:54:18.298Z,12.50
2018-12-07T14:56:52.670Z,12.40
2018-12-07T14:59:27.372Z,12.50
2018-12-07T15:02:01.945Z,12.50
2018-12-07T15:04:36.440Z,12.50
2018-12-07T15:07:10.966Z,12.40
2018-12-07T15:09:45.594Z,12.40
2018-12-07T15:12:20.181Z,12.20
2018-12-07T15:14:56.023Z,12.00
2018-12-07T15:17:30.450Z,11.80
2018-12-07T15:20:05.409Z,11.80
2018-12-07T15:22:39.950Z,11.80
2018-12-07T15:25:15.440Z,11.90
2018-12-07T15:27:49.936Z,11.90
2018-12-07T15:30:24.300Z,11.90
2018-12-07T15:32:58.614Z,11.90
2018-12-07T15:35:33.417Z,12.00
2018-12-07T15:38:08.255Z,11.90
2018-12-07T15:40:43.073Z,12.00
2018-12-07T15:43:17.520Z,11.90
2018-12-07T15:45:51.909Z,11.80
2018-12-07T15:48:26.371Z,11.80
2018-12-07T15:51:00.990Z,11.80
2018-12-07T15:53:35.590Z,11.70
2018-12-07T15:56:10.107Z,11.60
2018-12-07T15:58:45.948Z,11.50
2018-12-07T16:01:20.307Z,11.30
2018-12-07T16:03:54.571Z,11.10
2018-12-07T16:06:29.706Z,11.10
2018-12-07T16:09:07.961Z,11.00
2018-12-07T16:11:42.361Z,11.00
2018-12-07T16:14:16.898Z,10.90
2018-12-07T16:16:51.662Z,10.90
2018-12-07T16:19:26.492Z,10.80
2018-12-07T16:22:01.009Z,10.80
2018-12-07T16:24:35.631Z,10.70
2018-12-07T16:27:11.937Z,10.70
2018-12-07T16:29:46.537Z,10.60
2018-12-07T16:32:20.956Z,10.60
2018-12-07T16:34:55.508Z,10.60
2018-12-07T16:37:30.432Z,10.60
2018-12-07T16:40:06.743Z,10.50
2018-12-07T16:42:41.242Z,10.50
2018-12-07T16:45:16.673Z,10.50
2018-12-07T16:47:52.059Z,10.50
2018-12-07T16:50:26.843Z,10.40
2018-12-07T16:53:01.488Z,10.50
2018-12-07T16:55:37.157Z,10.40
2018-12-07T16:58:11.545Z,10.40
2018-12-07T17:00:46.073Z,10.40
2018-12-07T17:03:20.627Z,10.40
2018-12-07T17:05:55.164Z,10.40
2018-12-07T17:08:30.159Z,10.30
2018-12-07T17:11:04.482Z,10.30
2018-12-07T17:13:39.687Z,10.30
2018-12-07T17:16:14.293Z,10.30
2018-12-07T17:18:55.546Z,10.40
2018-12-07T17:21:30.117Z,10.40
2018-12-07T17:24:04.750Z,10.30
2018-12-07T17:26:39.178Z,10.30
2018-12-07T17:29:13.611Z,10.30
2018-12-07T17:31:48.357Z,10.30
2018-12-07T17:34:23.726Z,10.30
2018-12-07T17:37:01.526Z,10.30
2018-12-07T17:39:37.566Z,10.30
2018-12-07T17:42:12.720Z,10.20
2018-12-07T17:44:47.359Z,10.20
2018-12-07T17:47:21.733Z,10.20
2018-12-07T17:49:59.072Z,10.30
2018-12-07T17:52:36.332Z,10.30
2018-12-07T17:55:11.911Z,10.40
2018-12-07T17:57:46.629Z,10.30
2018-12-07T18:00:21.366Z,10.40
2018-12-07T18:02:56.874Z,10.40
2018-12-07T18:05:31.405Z,10.40
2018-12-07T18:08:06.069Z,10.40
2018-12-07T18:10:42.095Z,10.40
2018-12-07T18:13:16.747Z,10.40
2018-12-07T18:15:51.442Z,10.40
2018-12-07T18:18:27.787Z,10.40
2018-12-07T18:21:02.470Z,10.30
2018-12-07T18:23:36.904Z,10.20
2018-12-07T18:26:11.353Z,10.00
2018-12-07T18:28:46.234Z,9.80
2018-12-07T18:31:21.283Z,9.60
2018-12-07T18:33:59.076Z,9.50
2018-12-07T18:36:33.702Z,9.50
2018-12-07T18:39:11.796Z,9.40
2018-12-07T18:41:46.577Z,9.30
2018-12-07T18:44:21.599Z,9.20
2018-12-07T18:46:55.959Z,9.10
2018-12-07T18:49:30.525Z,8.90
2018-12-07T18:52:04.991Z,8.90
2018-12-07T18:54:39.516Z,8.70
2018-12-07T18:57:15.695Z,8.60
2018-12-07T18:59:50.109Z,8.60
2018-12-07T19:02:24.738Z,8.40
2018-12-07T19:04:59.425Z,8.40
2018-12-07T19:07:34.100Z,8.40
2018-12-07T19:10:10.318Z,8.30
2018-12-07T19:12:44.806Z,8.30
2018-12-07T19:15:20.077Z,8.20
2018-12-07T19:17:59.213Z,8.20
2018-12-07T19:20:33.869Z,8.10
2018-12-07T19:23:09.112Z,8.20
2018-12-07T19:25:43.782Z,8.10
2018-12-07T19:28:18.528Z,8.10
2018-12-07T19:30:58.134Z,8.00
2018-12-07T19:33:32.856Z,7.90
2018-12-07T19:36:09.189Z,7.80
2018-12-07T19:38:44.042Z,7.80
2018-12-07T19:41:19.269Z,7.80
2018-12-07T19:43:54.331Z,7.80
2018-12-07T19:46:29.209Z,7.80
2018-12-07T19:49:05.852Z,7.70
2018-12-07T19:51:40.561Z,7.70
2018-12-07T19:54:15.194Z,7.70
2018-12-07T19:56:49.573Z,7.70
2018-12-07T19:59:24.987Z,7.70
2018-12-07T20:01:59.784Z,7.70
2018-12-07T20:04:34.222Z,7.70
2018-12-07T20:07:08.729Z,7.80
2018-12-07T20:09:43.371Z,7.70
2018-12-07T20:12:18.044Z,7.80
2018-12-07T20:14:52.562Z,7.80
2018-12-07T20:17:26.927Z,7.70
2018-12-07T20:20:01.813Z,7.80
2018-12-07T20:22:36.421Z,7.80
2018-12-07T20:25:10.918Z,7.80
2018-12-07T20:27:46.195Z,7.80
2018-12-07T20:30:20.773Z,7.80
2018-12-07T20:32:55.485Z,7.80
2018-12-07T20:35:30.098Z,7.80
2018-12-07T20:38:04.960Z,7.80
2018-12-07T20:40:39.609Z,7.80
2018-12-07T20:43:14.227Z,7.90
2018-12-07T20:45:48.541Z,7.80
2018-12-07T20:48:22.937Z,7.90
2018-12-07T20:50:57.417Z,7.90
2018-12-07T20:53:32.938Z,7.90
2018-12-07T20:56:07.941Z,7.90
2018-12-07T20:58:42.726Z,8.00
2018-12-07T21:01:17.714Z,8.00
2018-12-07T21:04:34.036Z,8.00
2018-12-07T21:08:38.464Z,8.00
2018-12-07T21:11:22.755Z,8.00
2018-12-07T21:14:08.894Z,8.00
2018-12-07T21:17:04.026Z,8.00
2018-12-07T21:19:58.034Z,8.00
2018-12-07T21:22:32.890Z,8.00
2018-12-07T21:25:08.744Z,8.00
2018-12-07T21:27:44.157Z,8.00
2018-12-07T21:31:22.782Z,8.00
2018-12-07T21:34:08.063Z,7.90
2018-12-07T21:36:45.835Z,7.80
2018-12-07T21:39:29.723Z,7.90
2018-12-07T21:42:04.535Z,7.80
2018-12-07T21:44:39.003Z,7.80
2018-12-07T21:47:13.476Z,7.80
2018-12-07T21:49:55.591Z,7.80
2018-12-07T21:52:32.012Z,7.80
2018-12-07T21:55:06.534Z,7.70
2018-12-07T21:57:40.823Z,7.70
2018-12-07T22:00:15.526Z,7.70
2018-12-07T22:02:50.255Z,7.70
2018-12-07T22:05:24.743Z,7.60
2018-12-07T22:07:59.706Z,7.60
2018-12-07T22:10:34.261Z,7.60
2018-12-07T22:13:08.748Z,7.60
2018-12-07T22:15:44.796Z,7.60
2018-12-07T22:18:20.031Z,7.70
2018-12-07T22:20:54.628Z,7.80
2018-12-07T22:23:29.088Z,7.80
2018-12-07T22:26:05.029Z,7.80
2018-12-07T22:28:39.777Z,7.80
2018-12-07T22:31:14.778Z,7.80
2018-12-07T22:33:49.792Z,7.80
2018-12-07T22:36:24.625Z,7.70
2018-12-07T22:39:02.035Z,7.70
2018-12-07T22:41:38.049Z,7.70
2018-12-07T22:44:12.666Z,7.60
2018-12-07T22:46:47.198Z,7.60
2018-12-07T22:49:21.999Z,7.60
2018-12-07T22:54:39.053Z,7.60
2018-12-07T22:57:13.297Z,7.60
2018-12-07T22:59:47.685Z,7.70
2018-12-07T23:02:22.745Z,7.60
2018-12-07T23:04:57.126Z,7.60
2018-12-07T23:07:31.273Z,7.60
2018-12-07T23:10:05.989Z,7.60
2018-12-07T23:12:40.606Z,7.50
2018-12-07T23:15:15.163Z,7.50
2018-12-07T23:17:49.559Z,7.50
2018-12-07T23:20:24.673Z,7.50
2018-12-07T23:22:58.897Z,7.50
2018-12-07T23:25:33.275Z,7.50
2018-12-07T23:28:07.818Z,7.50
2018-12-07T23:30:42.655Z,7.50
2018-12-07T23:33:16.990Z,7.50
2018-12-07T23:35:51.324Z,7.40
2018-12-07T23:38:25.862Z,7.40
2018-12-07T23:41:00.260Z,7.30
2018-12-07T23:43:35.210Z,7.30
2018-12-07T23:46:09.377Z,7.20
2018-12-07T23:48:43.745Z,7.20
2018-12-07T23:51:18.158Z,7.10
2018-12-07T23:53:52.778Z,7.10
2018-12-07T23:56:27.302Z,7.10
2018-12-07T23:59:01.597Z,7.10
